createdAt,value
2023-04-05T00:04:12.549Z,2.47
2023-04-05T00:09:29.208Z,2.78
2023-04-05T00:14:45.477Z,2.45
2023-04-05T00:20:02.191Z,3.08
2023-04-05T00:25:18.988Z,2.42
2023-04-05T00:30:34.815Z,2.97
2023-04-05T00:35:51.319Z,2.67
2023-04-05T00:41:07.687Z,3.40
2023-04-05T00:46:23.675Z,3.13
2023-04-05T00:51:39.177Z,2.60
2023-04-05T00:56:57.261Z,1.67
2023-04-05T01:02:29.207Z,2.72
2023-04-05T01:07:54.349Z,2.70
2023-04-05T01:13:10.063Z,2.65
2023-04-05T01:18:27.946Z,2.67
2023-04-05T01:24:13.062Z,2.45
2023-04-05T01:29:32.329Z,2.78
2023-04-05T01:35:09.867Z,3.08
2023-04-05T01:40:26.330Z,2.10
2023-04-05T01:45:43.420Z,2.72
2023-04-05T01:50:58.972Z,4.30
2023-04-05T01:56:14.944Z,3.47
2023-04-05T02:01:31.075Z,2.47
2023-04-05T02:06:46.925Z,3.13
2023-04-05T02:12:02.211Z,2.83
2023-04-05T02:17:18.512Z,2.60
2023-04-05T02:22:34.356Z,3.10
2023-04-05T02:27:50.412Z,3.00
2023-04-05T02:33:06.399Z,3.33
2023-04-05T02:38:22.280Z,2.85
2023-04-05T02:43:38.744Z,3.50
2023-04-05T02:48:54.426Z,2.97
2023-04-05T02:54:10.438Z,2.95
2023-04-05T02:59:25.954Z,2.88
2023-04-05T03:04:41.950Z,2.70
2023-04-05T03:09:58.325Z,3.03
2023-04-05T03:15:14.490Z,2.60
2023-04-05T03:20:30.014Z,3.10
2023-04-05T03:25:45.930Z,3.13
2023-04-05T03:31:01.834Z,2.63
2023-04-05T03:36:18.172Z,2.63
2023-04-05T03:41:33.963Z,2.72
2023-04-05T03:46:49.902Z,4.55
2023-04-05T03:52:05.680Z,3.33
2023-04-05T03:57:21.621Z,2.88
2023-04-05T04:02:37.780Z,3.17
2023-04-05T04:07:53.631Z,3.67
2023-04-05T04:13:08.991Z,3.78
2023-04-05T04:18:24.809Z,2.33
2023-04-05T04:23:40.945Z,3.67
2023-04-05T04:28:57.418Z,2.70
2023-04-05T04:34:14.837Z,3.58
2023-04-05T04:39:31.771Z,3.83
2023-04-05T04:44:47.544Z,3.22
2023-04-05T04:50:05.101Z,3.58
2023-04-05T04:55:25.576Z,4.20
2023-04-05T05:00:44.776Z,6.75
2023-04-05T05:06:02.169Z,4.40
2023-04-05T05:11:17.900Z,4.05
2023-04-05T05:16:33.882Z,4.03
2023-04-05T05:21:50.640Z,3.30
2023-04-05T05:27:06.547Z,3.75
2023-04-05T05:32:23.272Z,4.93
2023-04-05T05:37:39.478Z,4.40
2023-04-05T05:42:55.217Z,4.88
2023-04-05T05:48:11.459Z,6.75
2023-04-05T05:53:27.099Z,5.25
2023-04-05T05:58:43.068Z,5.60
2023-04-05T06:03:58.648Z,5.70
2023-04-05T06:09:18.200Z,4.60
2023-04-05T06:14:33.817Z,3.67
2023-04-05T06:19:50.807Z,4.38
2023-04-05T06:25:09.156Z,4.63
2023-04-05T06:30:24.731Z,4.63
2023-04-05T06:35:40.869Z,4.25
2023-04-05T06:40:56.740Z,3.60
2023-04-05T06:46:12.866Z,2.67
2023-04-05T06:51:29.837Z,3.15
2023-04-05T06:56:45.649Z,3.55
2023-04-05T07:02:01.852Z,3.28
2023-04-05T07:07:17.900Z,3.00
2023-04-05T07:12:33.786Z,2.85
2023-04-05T07:17:49.687Z,2.92
2023-04-05T07:23:08.494Z,2.42
2023-04-05T07:28:24.453Z,3.08
2023-04-05T07:33:40.579Z,2.95
2023-04-05T07:38:57.211Z,2.33
2023-04-05T07:44:12.997Z,2.47
2023-04-05T07:49:30.058Z,2.40
2023-04-05T07:54:46.300Z,3.05
2023-04-05T08:00:02.006Z,2.03
2023-04-05T08:05:17.480Z,2.30
2023-04-05T08:10:33.318Z,2.00
2023-04-05T08:15:48.733Z,1.95
2023-04-05T08:21:04.734Z,1.70
2023-04-05T08:26:20.974Z,1.77
2023-04-05T08:31:37.027Z,2.28
2023-04-05T08:36:52.990Z,1.90
2023-04-05T08:42:23.863Z,2.00
2023-04-05T08:47:40.536Z,2.00
2023-04-05T08:52:56.439Z,2.00
2023-04-05T08:58:14.920Z,2.15
2023-04-05T09:03:38.131Z,3.38
2023-04-05T09:08:57.681Z,2.22
2023-04-05T09:14:13.734Z,2.20
2023-04-05T09:19:29.253Z,2.42
2023-04-05T09:24:47.364Z,2.17
2023-04-05T09:30:02.868Z,2.50
2023-04-05T09:35:24.579Z,2.35
2023-04-05T09:40:44.680Z,2.30
2023-04-05T09:46:02.743Z,2.30
2023-04-05T09:51:19.385Z,2.25
2023-04-05T09:56:37.905Z,2.00
2023-04-05T10:01:53.403Z,2.28
2023-04-05T10:07:14.444Z,2.72
2023-04-05T10:12:32.441Z,2.67
2023-04-05T10:18:03.442Z,3.00
2023-04-05T10:23:32.076Z,2.60
2023-04-05T10:28:52.689Z,3.08
2023-04-05T10:34:12.572Z,4.78
2023-04-05T10:39:30.016Z,3.57
2023-04-05T10:44:50.021Z,3.33
2023-04-05T10:50:12.602Z,2.83
2023-04-05T10:55:28.689Z,3.28
2023-04-05T11:00:45.833Z,3.00
2023-04-05T11:06:38.686Z,2.90
2023-04-05T11:11:54.169Z,3.10
2023-04-05T11:17:39.579Z,2.97
2023-04-05T11:22:55.356Z,3.22
2023-04-05T11:28:23.539Z,2.92
2023-04-05T11:34:00.874Z,3.17
2023-04-05T11:39:20.283Z,2.75
2023-04-05T11:44:41.692Z,3.40
2023-04-05T11:49:57.685Z,3.00
2023-04-05T11:55:13.489Z,3.00
2023-04-05T12:00:29.565Z,2.90
2023-04-05T12:05:49.662Z,2.80
2023-04-05T12:11:09.161Z,3.40
2023-04-05T12:16:25.419Z,3.70
2023-04-05T12:21:41.083Z,3.13
2023-04-05T12:26:59.182Z,3.08
2023-04-05T12:32:16.580Z,3.60
2023-04-05T12:37:35.495Z,3.22
2023-04-05T12:42:51.979Z,3.50
2023-04-05T12:48:16.238Z,4.45
2023-04-05T12:53:33.680Z,3.45
2023-04-05T12:58:53.082Z,2.85
2023-04-05T13:04:16.138Z,4.13
2023-04-05T13:09:33.061Z,3.13
2023-04-05T13:14:48.733Z,3.80
2023-04-05T13:20:05.715Z,3.28
2023-04-05T13:25:21.864Z,3.97
2023-04-05T13:30:37.943Z,3.70
2023-04-05T13:35:53.848Z,3.80
2023-04-05T13:41:09.897Z,3.65
2023-04-05T13:46:25.666Z,3.70
2023-04-05T13:51:41.629Z,3.53
2023-04-05T13:56:58.795Z,3.95
2023-04-05T14:02:15.116Z,3.30
2023-04-05T14:07:30.992Z,3.70
2023-04-05T14:12:46.895Z,3.40
2023-04-05T14:18:04.267Z,3.17
2023-04-05T14:23:21.834Z,4.53
2023-04-05T14:28:37.616Z,3.83
2023-04-05T14:33:53.425Z,4.13
2023-04-05T14:39:09.380Z,3.38
2023-04-05T14:44:27.113Z,4.50
2023-04-05T14:49:42.961Z,3.10
2023-04-05T14:54:59.071Z,2.80
2023-04-05T15:00:15.641Z,3.90
2023-04-05T15:05:31.581Z,3.25
2023-04-05T15:10:47.979Z,3.53
2023-04-05T15:16:03.917Z,3.42
2023-04-05T15:21:20.255Z,3.22
2023-04-05T15:26:36.093Z,3.78
2023-04-05T15:31:52.423Z,3.10
2023-04-05T15:37:08.237Z,2.80
2023-04-05T15:42:24.225Z,3.33
2023-04-05T15:47:40.787Z,3.42
2023-04-05T15:52:56.809Z,3.13
2023-04-05T15:58:12.967Z,3.08
2023-04-05T16:03:29.276Z,3.53
2023-04-05T16:08:45.305Z,3.17
2023-04-05T16:14:01.567Z,2.90
2023-04-05T16:19:17.441Z,2.30
2023-04-05T16:24:36.822Z,2.60
2023-04-05T16:29:52.464Z,2.70
2023-04-05T16:35:09.233Z,3.17
2023-04-05T16:40:25.582Z,3.38
2023-04-05T16:45:43.672Z,2.80
2023-04-05T16:50:59.722Z,2.80
2023-04-05T16:56:15.891Z,3.53
2023-04-05T17:01:32.042Z,3.00
2023-04-05T17:06:47.900Z,3.45
2023-04-05T17:12:04.441Z,3.97
2023-04-05T17:17:20.538Z,3.47
2023-04-05T17:22:37.730Z,4.03
2023-04-05T17:27:53.307Z,3.35
2023-04-05T17:33:09.253Z,4.13
2023-04-05T17:38:26.473Z,5.25
2023-04-05T17:43:42.432Z,3.78
2023-04-05T17:48:58.306Z,3.45
2023-04-05T17:54:15.694Z,2.97
2023-04-05T17:59:31.682Z,3.17
2023-04-05T18:04:47.690Z,3.45
2023-04-05T18:10:05.013Z,3.83
2023-04-05T18:15:20.876Z,3.10
2023-04-05T18:20:36.782Z,3.20
2023-04-05T18:25:53.942Z,3.65
2023-04-05T18:31:10.368Z,3.55
2023-04-05T18:36:27.113Z,2.97
2023-04-05T18:41:42.712Z,3.63
2023-04-05T18:46:59.127Z,3.80
2023-04-05T18:52:17.532Z,3.38
2023-04-05T18:57:34.438Z,4.07
2023-04-05T19:02:50.538Z,3.67
2023-04-05T19:08:06.564Z,3.50
2023-04-05T19:13:22.444Z,4.53
2023-04-05T19:18:38.298Z,4.10
2023-04-05T19:23:54.922Z,4.50
2023-04-05T19:29:11.256Z,4.57
2023-04-05T19:34:27.299Z,4.57
2023-04-05T19:39:43.296Z,4.30
2023-04-05T19:44:59.765Z,6.95
2023-04-05T19:50:47.699Z,4.97
2023-04-05T19:56:05.319Z,6.63
2023-04-05T20:01:41.381Z,3.70
2023-04-05T20:06:57.780Z,4.38
2023-04-05T20:12:16.018Z,5.57
2023-04-05T20:17:32.196Z,3.78
2023-04-05T20:22:48.177Z,4.55
2023-04-05T20:28:26.598Z,3.40
2023-04-05T20:33:50.002Z,3.60
2023-04-05T20:39:07.975Z,3.13
2023-04-05T20:44:25.142Z,3.88
2023-04-05T20:49:40.795Z,4.03
2023-04-05T20:54:56.558Z,4.40
2023-04-05T21:00:13.516Z,4.60
2023-04-05T21:05:29.319Z,3.95
2023-04-05T21:10:46.386Z,4.35
2023-04-05T21:16:02.477Z,3.42
2023-04-05T21:21:18.578Z,3.85
2023-04-05T21:26:34.747Z,3.85
2023-04-05T21:31:50.649Z,3.50
2023-04-05T21:37:06.314Z,3.90
2023-04-05T21:42:22.684Z,3.67
2023-04-05T21:47:38.453Z,3.10
2023-04-05T21:52:54.302Z,2.88
2023-04-05T21:58:10.175Z,4.38
2023-04-05T22:03:26.340Z,3.15
2023-04-05T22:08:42.362Z,3.10
2023-04-05T22:13:58.256Z,3.13
2023-04-05T22:19:14.738Z,3.83
2023-04-05T22:24:30.584Z,2.70
2023-04-05T22:29:48.701Z,2.90
2023-04-05T22:35:05.038Z,2.90
2023-04-05T22:40:26.536Z,3.45
2023-04-05T22:45:42.382Z,3.63
2023-04-05T22:50:58.419Z,3.78
2023-04-05T22:56:15.301Z,4.07
2023-04-05T23:01:31.167Z,4.10
2023-04-05T23:06:47.220Z,3.08
2023-04-05T23:12:03.334Z,3.40
2023-04-05T23:17:20.136Z,3.92
2023-04-05T23:22:36.443Z,2.97
2023-04-05T23:27:54.588Z,3.80
2023-04-05T23:33:13.556Z,3.88
2023-04-05T23:38:29.529Z,3.50
2023-04-05T23:43:46.167Z,2.83
2023-04-05T23:49:01.813Z,3.20
2023-04-05T23:54:17.729Z,3.03
2023-04-05T23:59:33.724Z,3.50
